createdAt,value
2022-11-16T00:02:06.017Z,15.87
2022-11-16T00:04:27.902Z,16.23
2022-11-16T00:06:50.157Z,14.17
2022-11-16T00:09:26.879Z,14.93
2022-11-16T00:11:52.402Z,14.43
2022-11-16T00:14:14.374Z,16.00
2022-11-16T00:16:36.523Z,14.27
2022-11-16T00:19:02.850Z,15.40
2022-11-16T00:21:26.849Z,15.17
2022-11-16T00:23:48.924Z,16.08
2022-11-16T00:26:12.890Z,16.13
2022-11-16T00:28:36.131Z,16.70
2022-11-16T00:31:04.680Z,17.60
2022-11-16T00:33:26.698Z,17.30
2022-11-16T00:35:51.339Z,18.97
2022-11-16T00:38:16.400Z,17.73
2022-11-16T00:40:41.413Z,17.53
2022-11-16T00:43:09.569Z,17.10
2022-11-16T00:45:31.626Z,17.20
2022-11-16T00:47:59.175Z,16.83
2022-11-16T00:50:25.212Z,17.63
2022-11-16T00:52:47.432Z,16.00
2022-11-16T00:55:13.534Z,15.93
2022-11-16T00:57:36.243Z,17.67
2022-11-16T00:59:59.405Z,18.45
2022-11-16T01:02:21.441Z,18.00
2022-11-16T01:04:43.905Z,18.17
2022-11-16T01:07:05.971Z,20.27
2022-11-16T01:09:27.930Z,18.30
2022-11-16T01:12:08.147Z,18.57
2022-11-16T01:14:30.634Z,20.57
2022-11-16T01:16:52.487Z,19.13
2022-11-16T01:19:15.529Z,17.77
2022-11-16T01:21:37.491Z,19.70
2022-11-16T01:23:59.588Z,16.90
2022-11-16T01:26:21.605Z,18.07
2022-11-16T01:28:43.533Z,17.83
2022-11-16T01:31:06.677Z,18.17
2022-11-16T01:33:31.557Z,18.17
2022-11-16T01:35:53.624Z,16.40
2022-11-16T01:38:18.389Z,18.27
2022-11-16T01:40:40.468Z,14.93
2022-11-16T01:43:02.505Z,14.07
2022-11-16T01:45:41.331Z,12.77
2022-11-16T01:48:06.803Z,12.63
2022-11-16T01:50:29.815Z,13.67
2022-11-16T01:53:04.032Z,13.23
2022-11-16T01:55:37.796Z,11.93
2022-11-16T01:58:18.923Z,12.13
2022-11-16T02:00:44.785Z,11.37
2022-11-16T02:03:23.241Z,12.40
2022-11-16T02:09:23.985Z,13.47
2022-11-16T02:12:37.775Z,12.97
2022-11-16T02:15:34.170Z,11.02
2022-11-16T02:18:49.731Z,23.63
2022-11-16T02:21:27.220Z,12.63
2022-11-16T02:24:14.077Z,15.20
2022-11-16T02:27:23.662Z,14.87
2022-11-16T02:29:51.549Z,12.50
2022-11-16T02:32:46.551Z,12.67
2022-11-16T02:35:28.942Z,15.60
2022-11-16T02:38:08.054Z,14.45
2022-11-16T02:40:35.665Z,16.37
2022-11-16T02:43:21.774Z,14.03
2022-11-16T02:45:54.107Z,16.23
2022-11-16T02:48:27.477Z,13.60
2022-11-16T02:50:54.125Z,15.80
2022-11-16T02:53:16.203Z,14.70
2022-11-16T02:55:38.440Z,17.97
2022-11-16T02:58:11.138Z,17.47
2022-11-16T03:01:15.852Z,15.50
2022-11-16T03:03:50.258Z,16.37
2022-11-16T03:06:31.516Z,14.20
2022-11-16T03:09:05.657Z,17.63
2022-11-16T03:11:49.038Z,18.75
2022-11-16T03:14:20.748Z,17.03
2022-11-16T03:16:50.330Z,15.87
2022-11-16T03:19:21.328Z,15.17
2022-11-16T03:22:03.404Z,14.17
2022-11-16T03:24:26.179Z,14.13
2022-11-16T03:26:59.875Z,17.97
2022-11-16T03:29:34.037Z,16.73
2022-11-16T03:32:19.200Z,17.90
2022-11-16T03:35:06.665Z,15.80
2022-11-16T03:37:30.969Z,14.90
2022-11-16T03:39:57.829Z,14.20
2022-11-16T03:42:24.764Z,11.13
2022-11-16T03:44:49.846Z,12.17
2022-11-16T03:47:13.938Z,12.23
2022-11-16T03:49:36.293Z,9.38
2022-11-16T03:51:59.147Z,11.53
2022-11-16T03:54:21.292Z,11.00
2022-11-16T03:56:43.258Z,9.83
2022-11-16T03:59:05.289Z,12.43
2022-11-16T04:01:27.369Z,11.30
2022-11-16T04:03:49.301Z,11.40
2022-11-16T04:06:31.607Z,12.13
2022-11-16T04:09:12.005Z,14.50
2022-11-16T04:11:54.510Z,13.10
2022-11-16T04:14:41.724Z,11.73
2022-11-16T04:17:31.716Z,11.23
2022-11-16T04:20:12.353Z,11.73
2022-11-16T04:23:25.030Z,10.00
2022-11-16T04:25:51.501Z,10.60
2022-11-16T04:28:17.569Z,13.30
2022-11-16T04:31:08.196Z,11.50
2022-11-16T04:33:51.670Z,9.83
2022-11-16T04:36:32.214Z,9.67
2022-11-16T04:38:54.194Z,7.30
2022-11-16T04:41:35.061Z,7.13
2022-11-16T04:43:58.511Z,7.40
2022-11-16T04:46:39.201Z,8.23
2022-11-16T04:49:01.253Z,7.83
2022-11-16T04:51:23.231Z,6.20
2022-11-16T04:53:45.088Z,5.87
2022-11-16T04:56:15.030Z,5.60
2022-11-16T04:58:37.729Z,6.47
2022-11-16T05:01:00.319Z,5.37
2022-11-16T05:03:23.246Z,6.10
2022-11-16T05:05:45.798Z,5.37
2022-11-16T05:08:09.291Z,3.87
2022-11-16T05:10:31.606Z,5.57
2022-11-16T05:12:54.494Z,3.83
2022-11-16T05:15:19.684Z,4.20
2022-11-16T05:17:42.697Z,5.27
2022-11-16T05:20:29.231Z,4.30
2022-11-16T05:22:58.625Z,5.10
2022-11-16T05:25:26.394Z,4.97
2022-11-16T05:27:48.808Z,5.77
2022-11-16T05:30:11.970Z,3.23
2022-11-16T05:32:34.543Z,6.13
2022-11-16T05:34:56.752Z,4.20
2022-11-16T05:37:21.192Z,4.40
2022-11-16T05:39:43.443Z,5.23
2022-11-16T05:42:07.278Z,8.87
2022-11-16T05:44:29.283Z,3.17
2022-11-16T05:46:51.720Z,8.03
2022-11-16T05:49:15.265Z,5.30
2022-11-16T05:51:39.084Z,4.70
2022-11-16T05:56:24.999Z,8.13
2022-11-16T05:58:48.818Z,6.38
2022-11-16T06:01:10.922Z,6.53
2022-11-16T06:03:33.622Z,4.10
2022-11-16T06:05:57.194Z,5.80
2022-11-16T06:08:21.322Z,6.10
2022-11-16T06:10:46.697Z,6.73
2022-11-16T06:13:08.697Z,10.13
2022-11-16T06:15:30.720Z,4.93
2022-11-16T06:17:53.329Z,6.57
2022-11-16T06:20:16.480Z,3.97
2022-11-16T06:22:39.815Z,6.70
2022-11-16T06:25:02.772Z,6.27
2022-11-16T06:27:24.851Z,5.67
2022-11-16T06:29:46.822Z,5.93
2022-11-16T06:32:08.752Z,7.70
2022-11-16T06:34:30.866Z,5.83
2022-11-16T06:36:53.399Z,6.80
2022-11-16T06:39:15.935Z,5.83
2022-11-16T06:41:41.386Z,6.43
2022-11-16T06:44:05.293Z,3.90
2022-11-16T06:46:32.390Z,6.63
2022-11-16T06:48:54.524Z,7.13
2022-11-16T06:51:17.086Z,6.17
2022-11-16T06:53:39.081Z,4.20
2022-11-16T06:56:05.464Z,5.60
2022-11-16T06:58:33.267Z,3.70
2022-11-16T07:00:55.380Z,5.77
2022-11-16T07:03:18.259Z,7.40
2022-11-16T07:05:44.826Z,5.27
2022-11-16T07:08:10.073Z,6.53
2022-11-16T07:10:32.002Z,6.37
2022-11-16T07:12:53.929Z,6.17
2022-11-16T07:15:16.468Z,6.13
2022-11-16T07:17:42.966Z,8.23
2022-11-16T07:20:05.588Z,7.13
2022-11-16T07:22:28.357Z,11.03
2022-11-16T07:24:50.495Z,7.40
2022-11-16T07:27:13.424Z,6.87
2022-11-16T07:29:39.456Z,6.67
2022-11-16T07:32:24.574Z,9.20
2022-11-16T07:35:22.069Z,10.20
2022-11-16T07:37:44.156Z,6.83
2022-11-16T07:40:09.372Z,11.38
2022-11-16T07:42:32.952Z,10.13
2022-11-16T07:45:01.754Z,10.20
2022-11-16T07:47:23.660Z,8.97
2022-11-16T07:49:45.602Z,10.00
2022-11-16T07:52:13.697Z,12.97
2022-11-16T07:54:52.745Z,7.70
2022-11-16T07:57:17.317Z,11.17
2022-11-16T07:59:39.339Z,8.43
2022-11-16T08:02:01.648Z,11.27
2022-11-16T08:04:23.624Z,10.20
2022-11-16T08:06:46.881Z,11.10
2022-11-16T08:09:09.558Z,8.27
2022-11-16T08:11:35.230Z,8.48
2022-11-16T08:16:22.963Z,8.93
2022-11-16T08:18:50.856Z,10.83
2022-11-16T08:21:15.920Z,9.13
2022-11-16T08:23:42.471Z,11.20
2022-11-16T08:26:13.600Z,9.40
2022-11-16T08:28:37.722Z,8.67
2022-11-16T08:31:00.131Z,10.77
2022-11-16T08:33:24.455Z,10.27
2022-11-16T08:35:46.521Z,10.70
2022-11-16T08:38:08.546Z,8.63
2022-11-16T08:40:30.460Z,9.93
2022-11-16T08:42:57.008Z,10.40
2022-11-16T08:45:19.093Z,4.83
2022-11-16T08:47:41.013Z,8.90
2022-11-16T08:50:03.761Z,8.30
2022-11-16T08:52:25.995Z,8.73
2022-11-16T08:54:49.550Z,14.57
2022-11-16T08:57:12.517Z,8.70
2022-11-16T08:59:36.462Z,7.80
2022-11-16T09:02:03.557Z,11.80
2022-11-16T09:04:25.577Z,8.07
2022-11-16T09:06:47.712Z,10.83
2022-11-16T09:09:09.689Z,10.07
2022-11-16T09:11:31.584Z,7.43
2022-11-16T09:13:55.662Z,10.17
2022-11-16T09:16:21.117Z,6.50
2022-11-16T09:18:47.248Z,7.47
2022-11-16T09:21:09.213Z,11.40
2022-11-16T09:23:32.132Z,8.87
2022-11-16T09:25:55.530Z,8.90
2022-11-16T09:28:22.245Z,8.63
2022-11-16T09:30:46.621Z,6.53
2022-11-16T09:33:09.064Z,7.22
2022-11-16T09:35:31.793Z,8.60
2022-11-16T09:37:53.768Z,9.77
2022-11-16T09:40:16.125Z,6.33
2022-11-16T09:43:06.363Z,8.57
2022-11-16T09:45:46.476Z,10.17
2022-11-16T09:48:13.624Z,6.50
2022-11-16T09:51:01.878Z,9.40
2022-11-16T09:53:42.345Z,6.57
2022-11-16T09:56:10.582Z,7.47
2022-11-16T09:59:01.482Z,5.93
2022-11-16T10:01:29.110Z,5.37
2022-11-16T10:04:02.450Z,9.33
2022-11-16T10:06:44.646Z,8.33
2022-11-16T10:09:12.719Z,8.60
2022-11-16T10:12:04.487Z,7.03
2022-11-16T10:14:51.390Z,7.87
2022-11-16T10:17:36.515Z,8.07
2022-11-16T10:20:38.579Z,6.85
2022-11-16T10:23:14.530Z,10.37
2022-11-16T10:25:44.844Z,10.27
2022-11-16T10:28:43.580Z,10.33
2022-11-16T10:31:33.487Z,9.70
2022-11-16T10:34:00.958Z,7.57
2022-11-16T10:36:29.609Z,11.37
2022-11-16T10:38:51.766Z,10.00
2022-11-16T10:41:24.482Z,7.40
2022-11-16T10:43:48.663Z,8.00
2022-11-16T10:46:25.729Z,9.60
2022-11-16T10:49:40.056Z,9.17
2022-11-16T10:52:03.006Z,9.00
2022-11-16T10:54:24.973Z,10.77
2022-11-16T10:56:52.770Z,6.63
2022-11-16T10:59:20.438Z,6.70
2022-11-16T11:01:53.374Z,7.67
2022-11-16T11:04:30.191Z,8.80
2022-11-16T11:06:59.331Z,8.43
2022-11-16T11:09:41.788Z,6.37
2022-11-16T11:12:34.889Z,7.37
2022-11-16T11:15:12.264Z,8.13
2022-11-16T11:17:37.014Z,8.23
2022-11-16T11:20:23.070Z,6.57
2022-11-16T11:23:00.569Z,7.67
2022-11-16T11:25:38.844Z,7.27
2022-11-16T11:28:30.115Z,5.63
2022-11-16T11:31:33.901Z,7.03
2022-11-16T11:34:03.334Z,10.10
2022-11-16T11:36:41.563Z,8.33
2022-11-16T11:39:29.576Z,4.40
2022-11-16T11:42:23.614Z,7.07
2022-11-16T11:45:06.827Z,8.97
2022-11-16T11:47:58.132Z,5.70
2022-11-16T11:50:44.685Z,3.53
2022-11-16T11:53:58.275Z,4.30
2022-11-16T11:56:20.818Z,5.60
2022-11-16T11:58:44.384Z,5.93
2022-11-16T12:01:38.656Z,7.32
2022-11-16T12:04:28.537Z,5.37
2022-11-16T12:07:28.580Z,5.97
2022-11-16T12:10:16.764Z,7.10
2022-11-16T12:13:05.824Z,4.53
2022-11-16T12:16:02.157Z,7.40
2022-11-16T12:18:50.478Z,7.80
2022-11-16T12:21:15.083Z,6.23
2022-11-16T12:26:50.393Z,9.27
2022-11-16T12:29:55.895Z,6.77
2022-11-16T12:32:54.988Z,5.40
2022-11-16T12:35:49.286Z,5.33
2022-11-16T12:38:37.386Z,7.13
2022-11-16T12:41:39.568Z,4.67
2022-11-16T12:44:14.895Z,8.60
2022-11-16T12:47:12.437Z,6.55
2022-11-16T12:50:11.400Z,5.53
2022-11-16T12:52:51.556Z,7.43
2022-11-16T12:55:32.183Z,4.20
2022-11-16T12:58:18.923Z,7.53
2022-11-16T13:01:22.570Z,6.87
2022-11-16T13:04:09.673Z,4.33
2022-11-16T13:06:44.450Z,5.37
2022-11-16T13:09:30.130Z,5.93
2022-11-16T13:14:34.231Z,4.83
2022-11-16T13:17:00.600Z,6.10
2022-11-16T13:19:23.719Z,9.50
2022-11-16T13:22:10.631Z,5.57
2022-11-16T13:24:46.494Z,8.83
2022-11-16T13:27:39.453Z,5.70
2022-11-16T13:30:05.529Z,3.93
2022-11-16T13:32:47.013Z,4.50
2022-11-16T13:35:16.822Z,7.80
2022-11-16T13:37:38.763Z,6.33
2022-11-16T13:40:00.677Z,4.77
2022-11-16T13:42:22.734Z,6.20
2022-11-16T13:44:51.322Z,9.17
2022-11-16T13:47:30.640Z,5.47
2022-11-16T13:49:59.701Z,5.03
2022-11-16T13:52:25.032Z,5.93
2022-11-16T13:55:01.682Z,5.27
2022-11-16T13:57:34.966Z,4.33
2022-11-16T14:00:02.737Z,6.17
2022-11-16T14:02:36.227Z,4.67
2022-11-16T14:05:03.155Z,6.90
2022-11-16T14:07:43.299Z,8.57
2022-11-16T14:10:07.938Z,8.93
2022-11-16T14:12:39.087Z,7.17
2022-11-16T14:15:13.429Z,5.43
2022-11-16T14:18:07.506Z,7.18
2022-11-16T14:20:38.620Z,5.13
2022-11-16T14:23:21.467Z,6.27
2022-11-16T14:26:17.432Z,5.00
2022-11-16T14:29:20.276Z,7.23
2022-11-16T14:31:54.753Z,6.73
2022-11-16T14:34:22.563Z,7.45
2022-11-16T14:36:46.807Z,9.23
2022-11-16T14:39:17.863Z,3.38
2022-11-16T14:41:47.192Z,3.73
2022-11-16T14:44:11.305Z,6.27
2022-11-16T14:46:37.263Z,7.45
2022-11-16T14:49:02.612Z,7.17
2022-11-16T14:51:34.131Z,5.63
2022-11-16T14:54:11.424Z,8.23
2022-11-16T14:56:33.497Z,5.23
2022-11-16T14:59:01.556Z,5.50
2022-11-16T15:01:28.188Z,6.03
2022-11-16T15:04:04.133Z,5.73
2022-11-16T15:06:27.170Z,5.87
2022-11-16T15:08:56.993Z,8.37
2022-11-16T15:11:52.614Z,3.93
2022-11-16T15:14:32.662Z,5.05
2022-11-16T15:16:57.757Z,5.40
2022-11-16T15:19:20.980Z,5.33
2022-11-16T15:21:58.523Z,8.03
2022-11-16T15:24:38.549Z,3.40
2022-11-16T15:27:10.981Z,5.63
2022-11-16T15:29:33.034Z,7.53
2022-11-16T15:31:55.011Z,8.67
2022-11-16T15:34:19.668Z,7.83
2022-11-16T15:36:41.926Z,6.00
2022-11-16T15:39:06.168Z,6.17
2022-11-16T15:41:29.405Z,6.80
2022-11-16T15:44:13.608Z,6.90
2022-11-16T15:46:37.189Z,7.23
2022-11-16T15:49:00.297Z,7.40
2022-11-16T15:51:23.545Z,6.87
2022-11-16T15:53:54.291Z,7.93
2022-11-16T15:56:32.888Z,7.83
2022-11-16T15:59:01.619Z,7.20
2022-11-16T16:01:28.043Z,7.60
2022-11-16T16:04:05.428Z,8.90
2022-11-16T16:06:47.126Z,7.23
2022-11-16T16:09:23.776Z,6.00
2022-11-16T16:11:45.840Z,12.47
2022-11-16T16:14:10.820Z,6.73
2022-11-16T16:16:39.509Z,7.77
2022-11-16T16:19:09.493Z,8.57
2022-11-16T16:21:47.018Z,11.70
2022-11-16T16:24:35.063Z,11.57
2022-11-16T16:26:56.936Z,7.97
2022-11-16T16:29:18.796Z,10.30
2022-11-16T16:31:40.806Z,4.23
2022-11-16T16:34:12.042Z,6.20
2022-11-16T16:36:33.899Z,7.73
2022-11-16T16:38:57.085Z,9.40
2022-11-16T16:41:24.223Z,9.20
2022-11-16T16:43:46.875Z,8.43
2022-11-16T16:46:13.190Z,9.97
2022-11-16T16:48:35.864Z,10.03
2022-11-16T16:50:59.924Z,7.73
2022-11-16T16:53:21.848Z,5.47
2022-11-16T16:55:44.733Z,6.37
2022-11-16T16:58:06.791Z,6.83
2022-11-16T17:00:29.014Z,7.60
2022-11-16T17:02:51.067Z,5.00
2022-11-16T17:05:13.114Z,7.90
2022-11-16T17:07:35.321Z,5.43
2022-11-16T17:09:57.357Z,8.10
2022-11-16T17:12:19.300Z,4.83
2022-11-16T17:14:41.267Z,6.67
2022-11-16T17:17:03.322Z,6.17
2022-11-16T17:19:25.485Z,6.03
2022-11-16T17:21:47.461Z,8.60
2022-11-16T17:24:09.646Z,4.90
2022-11-16T17:26:31.609Z,7.70
2022-11-16T17:28:58.194Z,5.60
2022-11-16T17:31:20.131Z,6.13
2022-11-16T17:33:43.209Z,4.97
2022-11-16T17:36:07.368Z,7.10
2022-11-16T17:38:30.728Z,6.65
2022-11-16T17:40:52.571Z,7.03
2022-11-16T17:43:14.516Z,6.93
2022-11-16T17:45:36.347Z,5.10
2022-11-16T17:47:58.185Z,8.30
2022-11-16T17:50:20.095Z,7.60
2022-11-16T17:52:41.967Z,7.33
2022-11-16T17:55:04.254Z,7.97
2022-11-16T17:57:26.079Z,8.67
2022-11-16T17:59:48.288Z,7.50
2022-11-16T18:02:11.893Z,7.60
2022-11-16T18:04:33.937Z,9.67
2022-11-16T18:06:56.092Z,10.00
2022-11-16T18:09:18.980Z,6.73
2022-11-16T18:11:41.325Z,5.43
2022-11-16T18:14:05.668Z,4.97
2022-11-16T18:16:33.301Z,6.45
2022-11-16T18:18:59.695Z,4.97
2022-11-16T18:21:21.658Z,4.30
2022-11-16T18:23:43.676Z,4.20
2022-11-16T18:26:15.339Z,6.17
2022-11-16T18:28:38.153Z,5.23
2022-11-16T18:31:10.692Z,5.47
2022-11-16T18:33:33.938Z,6.00
2022-11-16T18:35:56.122Z,4.73
2022-11-16T18:38:17.966Z,5.40
2022-11-16T18:40:42.840Z,6.23
2022-11-16T18:43:04.758Z,7.43
2022-11-16T18:45:26.822Z,5.97
2022-11-16T18:47:48.693Z,5.27
2022-11-16T18:50:19.037Z,6.77
2022-11-16T18:52:46.617Z,6.90
2022-11-16T18:55:09.241Z,4.77
2022-11-16T18:57:32.117Z,6.00
2022-11-16T18:59:53.975Z,5.83
2022-11-16T19:02:15.884Z,4.87
2022-11-16T19:04:40.049Z,6.67
2022-11-16T19:07:02.021Z,7.07
2022-11-16T19:09:23.903Z,5.67
2022-11-16T19:11:46.284Z,5.97
2022-11-16T19:14:08.330Z,8.47
2022-11-16T19:16:31.345Z,4.50
2022-11-16T19:18:53.301Z,7.90
2022-11-16T19:21:19.883Z,4.03
2022-11-16T19:23:48.250Z,4.77
2022-11-16T19:26:12.967Z,6.43
2022-11-16T19:28:37.266Z,5.70
2022-11-16T19:30:59.482Z,6.00
2022-11-16T19:33:21.332Z,5.67
2022-11-16T19:35:43.194Z,6.40
2022-11-16T19:38:05.069Z,5.90
2022-11-16T19:40:26.903Z,6.67
2022-11-16T19:42:48.806Z,5.80
2022-11-16T19:45:11.989Z,5.13
2022-11-16T19:47:33.958Z,6.90
2022-11-16T19:49:55.978Z,5.43
2022-11-16T19:52:17.932Z,5.03
2022-11-16T19:54:39.800Z,5.07
2022-11-16T19:57:01.677Z,4.43
2022-11-16T19:59:23.589Z,8.20
2022-11-16T20:01:45.509Z,4.83
2022-11-16T20:04:07.920Z,5.93
2022-11-16T20:06:34.574Z,4.83
2022-11-16T20:09:00.986Z,5.70
2022-11-16T20:11:27.279Z,6.03
2022-11-16T20:13:51.778Z,6.53
2022-11-16T20:18:37.968Z,6.57
2022-11-16T20:21:05.690Z,5.20
2022-11-16T20:23:27.894Z,6.03
2022-11-16T20:25:49.731Z,4.87
2022-11-16T20:28:11.649Z,6.33
2022-11-16T20:30:33.548Z,4.97
2022-11-16T20:32:55.391Z,5.97
2022-11-16T20:35:19.177Z,5.40
2022-11-16T20:37:42.765Z,6.60
2022-11-16T20:40:05.388Z,8.03
2022-11-16T20:42:27.312Z,5.50
2022-11-16T20:44:49.197Z,6.80
2022-11-16T20:47:11.086Z,5.90
2022-11-16T20:49:32.954Z,6.00
2022-11-16T20:51:55.096Z,5.97
2022-11-16T20:54:17.137Z,8.77
2022-11-16T20:56:38.951Z,10.07
2022-11-16T20:59:01.043Z,4.73
2022-11-16T21:01:28.846Z,4.77
2022-11-16T21:03:50.932Z,6.37
2022-11-16T21:06:14.973Z,7.97
2022-11-16T21:08:38.657Z,6.28
2022-11-16T21:11:00.709Z,9.30
2022-11-16T21:13:41.964Z,4.60
2022-11-16T21:16:13.746Z,4.00
2022-11-16T21:18:35.725Z,5.97
2022-11-16T21:21:06.333Z,4.97
2022-11-16T21:23:31.157Z,8.20
2022-11-16T21:26:04.665Z,7.07
2022-11-16T21:28:26.534Z,4.80
2022-11-16T21:31:11.607Z,5.80
2022-11-16T21:33:34.008Z,4.90
2022-11-16T21:35:56.547Z,6.30
2022-11-16T21:38:20.516Z,6.63
2022-11-16T21:40:44.076Z,4.63
2022-11-16T21:43:05.881Z,5.37
2022-11-16T21:45:27.805Z,4.70
2022-11-16T21:47:50.580Z,4.07
2022-11-16T21:52:54.585Z,7.47
2022-11-16T21:55:16.460Z,4.93
2022-11-16T21:57:38.455Z,6.40
2022-11-16T22:00:01.147Z,8.63
2022-11-16T22:02:33.407Z,7.43
2022-11-16T22:05:13.784Z,5.83
2022-11-16T22:07:38.465Z,7.80
2022-11-16T22:10:01.561Z,5.00
2022-11-16T22:12:23.381Z,5.70
2022-11-16T22:14:45.190Z,9.83
2022-11-16T22:17:08.364Z,5.10
2022-11-16T22:19:30.539Z,8.90
2022-11-16T22:21:52.671Z,8.37
2022-11-16T22:24:14.852Z,7.57
2022-11-16T22:26:38.147Z,7.60
2022-11-16T22:29:00.150Z,6.70
2022-11-16T22:31:22.106Z,8.07
2022-11-16T22:33:43.943Z,6.57
2022-11-16T22:36:09.325Z,7.50
2022-11-16T22:38:31.594Z,13.13
2022-11-16T22:40:56.824Z,7.47
2022-11-16T22:43:29.756Z,9.07
2022-11-16T22:45:52.007Z,10.23
2022-11-16T22:48:14.543Z,8.73
2022-11-16T22:50:36.390Z,8.63
2022-11-16T22:52:58.993Z,11.27
2022-11-16T22:55:20.825Z,9.73
2022-11-16T22:57:42.676Z,7.13
2022-11-16T23:00:06.506Z,7.30
2022-11-16T23:02:28.405Z,9.18
2022-11-16T23:04:50.272Z,10.73
2022-11-16T23:07:12.198Z,10.53
2022-11-16T23:09:34.454Z,8.03
2022-11-16T23:12:14.787Z,7.87
2022-11-16T23:14:54.966Z,8.17
2022-11-16T23:17:16.838Z,9.60
2022-11-16T23:19:57.658Z,10.67
2022-11-16T23:22:40.551Z,10.00
2022-11-16T23:25:21.443Z,10.63
2022-11-16T23:28:03.953Z,6.60
2022-11-16T23:30:27.158Z,9.67
2022-11-16T23:32:49.338Z,7.17
2022-11-16T23:35:11.907Z,7.23
2022-11-16T23:37:34.198Z,8.30
2022-11-16T23:39:56.037Z,10.47
2022-11-16T23:42:36.459Z,12.10
2022-11-16T23:44:58.282Z,9.80
2022-11-16T23:47:20.199Z,10.30
2022-11-16T23:49:42.108Z,9.83
2022-11-16T23:52:04.156Z,9.33
2022-11-16T23:54:26.071Z,12.77
2022-11-16T23:56:48.038Z,9.03
2022-11-16T23:59:09.887Z,10.67
